Jj Sky — VRJA6 — position and weather

sailwx.info

Track history (hours):
 
Tides and Currents Weather Stations Pressure Air Temp Water Temp Dewpoint Dewpoint Depression Visibility Wind Speed Wind Dir Waves Ship Positions

Jj Sky

Last reported at 2017-Oct-20 12:00 UTC. Time now 2017-Oct-20 12:28 UTC.
Position N 31°20' E 121°40'.

Length 148 m; draft 7.3 m.

Type: Ship (hazmat cat D). MMSI: 477397500.

Date/timePositionNaut miles runAvg speedWind from/ knotsBaromVisibWave heightAir tempDewpointWater temp
2017-Oct-20 12:00N 31°20' E 121°40'0 0.0
2017-Oct-20 11:26N 31°20' E 121°40'0 0.0
2017-Oct-20 10:56N 31°20' E 121°40'0 0.0
2017-Oct-20 10:29N 31°20' E 121°40'0 0.0
2017-Oct-20 09:59N 31°20' E 121°40'0 0.0
2017-Oct-20 09:29N 31°20' E 121°40'0 0.0
2017-Oct-20 08:58N 31°20' E 121°40'0 0.0
2017-Oct-20 08:28N 31°20' E 121°40'0 0.0
2017-Oct-20 07:58N 31°20' E 121°40'0 0.0
2017-Oct-20 07:28N 31°20' E 121°40'0 0.0
2017-Oct-20 07:00N 31°20' E 121°40'0 0.0
2017-Oct-20 06:30N 31°20' E 121°40'0 0.0
2017-Oct-20 06:00N 31°20' E 121°40'0 0.0
2017-Oct-20 05:30N 31°20' E 121°40'0 0.0
2017-Oct-20 05:00N 31°20' E 121°40'0 0.0
2017-Oct-20 04:29N 31°20' E 121°40'0 0.0
2017-Oct-20 03:59N 31°20' E 121°40'0 0.0
2017-Oct-20 03:29N 31°20' E 121°40'0 0.0
2017-Oct-20 02:59N 31°20' E 121°40'0 0.0
2017-Oct-20 02:29N 31°20' E 121°40'0 0.0
2017-Oct-20 02:00N 31°20' E 121°40'0 0.0
2017-Oct-20 01:28N 31°20' E 121°40'0 0.6
2017-Oct-20 01:00N 31°20' E 121°41'2 4.9
2017-Oct-20 00:30N 31°19' E 121°43'611.3
2017-Oct-20 00:00N 31°17' E 121°49'611.5
2017-Oct-19 23:30N 31°16' E 121°56'612.0
2017-Oct-19 23:00N 31°14' E 122°03'4 8.0
2017-Oct-19 22:30N 31°13' E 122°07'4 8.4
2017-Oct-19 22:00N 31°10' E 122°11'612.1
2017-Oct-19 21:30N 31°07' E 122°17'713.3
2017-Oct-19 21:00N 31°06' E 122°25'  
2017-Oct-17 06:51N 34°54' E 139°26'516.1
2017-Oct-17 06:31N 34°58' E 139°32'815.8
2017-Oct-17 06:00N 35°03' E 139°39'816.6
2017-Oct-17 05:30N 35°10' E 139°45'713.3
2017-Oct-17 05:00N 35°17' E 139°45'714.4
2017-Oct-17 04:31N 35°23' E 139°42'4 8.5
2017-Oct-17 04:00N 35°28' E 139°41'0 0.1
2017-Oct-17 03:16N 35°27' E 139°41'0 0.0
2017-Oct-17 02:58N 35°27' E 139°41'0 0.0
2017-Oct-17 02:28N 35°27' E 139°41'0 0.0
2017-Oct-17 02:00N 35°27' E 139°41'0 0.0
2017-Oct-17 01:30N 35°27' E 139°41'0 0.0
2017-Oct-17 01:00N 35°27' E 139°41'0 0.0
2017-Oct-17 00:30N 35°27' E 139°41'0 0.0
2017-Oct-16 23:59N 35°27' E 139°41'0 0.0
2017-Oct-16 23:29N 35°27' E 139°41'0 0.0
2017-Oct-16 22:59N 35°27' E 139°41'0 0.0
2017-Oct-16 22:29N 35°27' E 139°41'0 0.0
2017-Oct-16 21:59N 35°27' E 139°41'0 0.0
2017-Oct-16 21:29N 35°27' E 139°41'0 0.0
2017-Oct-16 20:58N 35°27' E 139°41'0 0.0
2017-Oct-16 20:28N 35°27' E 139°41'0 0.0
2017-Oct-16 19:58N 35°27' E 139°41'0 0.0
2017-Oct-16 19:31N 35°27' E 139°41'0 0.0
2017-Oct-16 19:00N 35°27' E 139°41'0 0.0
2017-Oct-16 18:30N 35°27' E 139°41'0 0.0
2017-Oct-16 18:00N 35°27' E 139°41'0 0.0
2017-Oct-16 17:30N 35°27' E 139°41'0 0.0
2017-Oct-16 16:59N 35°27' E 139°41'0 0.0
2017-Oct-16 16:29N 35°27' E 139°41'0 0.1
2017-Oct-16 16:01N 35°28' E 139°42'3 6.0
2017-Oct-16 15:30N 35°27' E 139°45'714.6
2017-Oct-16 15:00N 35°33' E 139°50'4 7.2
2017-Oct-16 14:25N 35°36' E 139°47'0 0.0
2017-Oct-16 13:30N 35°36' E 139°47'0 0.0
2017-Oct-16 12:54N 35°36' E 139°47'0 0.0
2017-Oct-16 12:30N 35°36' E 139°47'0 0.2
2017-Oct-16 12:00N 35°36' E 139°47'0 0.2
2017-Oct-16 11:29N 35°36' E 139°47'0 0.1
2017-Oct-16 10:56N 35°36' E 139°47'0 0.1
2017-Oct-16 10:29N 35°36' E 139°47'0 0.0
2017-Oct-16 09:59N 35°36' E 139°47'0 0.0
2017-Oct-16 09:28N 35°36' E 139°47'0 0.0
2017-Oct-16 08:59N 35°36' E 139°47'0 0.1
2017-Oct-16 08:22N 35°36' E 139°47'0 0.2
2017-Oct-16 07:58N 35°36' E 139°47'0 0.0
2017-Oct-16 07:22N 35°36' E 139°47'0 0.0
2017-Oct-16 06:58N 35°36' E 139°47'0 0.2
2017-Oct-16 06:27N 35°36' E 139°47'0 0.0
2017-Oct-16 05:57N 35°36' E 139°47'0 0.0
2017-Oct-16 05:27N 35°36' E 139°47'0 0.1
2017-Oct-16 04:57N 35°36' E 139°47'0 0.0
2017-Oct-16 04:27N 35°36' E 139°47'0 0.0
2017-Oct-16 03:56N 35°36' E 139°47'0 0.1
2017-Oct-16 03:26N 35°36' E 139°47'0 0.1
2017-Oct-16 02:56N 35°36' E 139°47'0 0.0
2017-Oct-16 02:31N 35°36' E 139°47'0 0.0
2017-Oct-16 01:56N 35°36' E 139°47'0 0.2
2017-Oct-16 01:26N 35°36' E 139°47'1 2.0
2017-Oct-16 00:59N 35°36' E 139°47'612.8
2017-Oct-16 00:30N 35°31' E 139°52'714.5
2017-Oct-16 00:00N 35°25' E 139°47'713.1
2017-Oct-15 23:30N 35°19' E 139°44'612.9
2017-Oct-15 23:00N 35°12' E 139°47'713.8
2017-Oct-15 22:31N 35°06' E 139°44'714.1
2017-Oct-15 21:59N 35°00' E 139°39'714.9
2017-Oct-15 21:30N 34°56' E 139°31'  
2017-Oct-13 06:11N 31°06' E 122°31'312.8
2017-Oct-13 05:58N 31°06' E 122°28'612.5
2017-Oct-13 05:30N 31°06' E 122°21'612.7
2017-Oct-13 05:00N 31°08' E 122°15'713.5
2017-Oct-13 04:30N 31°12' E 122°08'713.2
2017-Oct-13 04:00N 31°15' E 122°01'714.7
2017-Oct-13 03:30N 31°16' E 121°53'714.7
2017-Oct-13 03:00N 31°19' E 121°44'4 7.6
2017-Oct-13 02:30N 31°20' E 121°40'0 0.1
2017-Oct-13 01:58N 31°20' E 121°40'0 0.0
2017-Oct-13 01:28N 31°20' E 121°40'0 0.1
2017-Oct-13 00:58N 31°20' E 121°40'0 0.0
2017-Oct-13 00:30N 31°20' E 121°40'0 0.0
2017-Oct-12 23:57N 31°20' E 121°40'0 0.1
2017-Oct-12 23:30N 31°20' E 121°40'0 0.1
2017-Oct-12 23:00N 31°20' E 121°40'0 0.0
2017-Oct-12 22:29N 31°20' E 121°40'0 0.1
2017-Oct-12 21:56N 31°20' E 121°40'0 0.1
2017-Oct-12 21:23N 31°20' E 121°40'0 0.1
2017-Oct-12 20:59N 31°20' E 121°40'0 0.0
2017-Oct-12 20:29N 31°20' E 121°40'0 0.1
2017-Oct-12 19:58N 31°20' E 121°40'0 0.1
2017-Oct-12 19:25N 31°20' E 121°40'0 0.1
2017-Oct-12 18:55N 31°20' E 121°40'0 0.1
2017-Oct-12 18:25N 31°20' E 121°40'0 0.0
2017-Oct-12 18:00N 31°20' E 121°40'0 0.0
2017-Oct-12 17:30N 31°20' E 121°40'0 0.0
2017-Oct-12 17:00N 31°20' E 121°40'0 0.1
2017-Oct-12 16:24N 31°20' E 121°40'0 0.1
2017-Oct-12 16:00N 31°20' E 121°40'0 0.0
2017-Oct-12 15:29N 31°20' E 121°40'0 0.0
2017-Oct-12 14:59N 31°20' E 121°40'0 0.1
2017-Oct-12 14:29N 31°20' E 121°40'0 0.0
2017-Oct-12 13:59N 31°20' E 121°40'0 0.1
2017-Oct-12 13:29N 31°20' E 121°40'0 0.0
2017-Oct-12 12:59N 31°20' E 121°40'0 0.1
2017-Oct-12 12:25N 31°20' E 121°40'0 0.1
2017-Oct-12 11:55N 31°20' E 121°40'1 3.2
2017-Oct-12 11:30N 31°20' E 121°42'1 1.4
2017-Oct-12 10:56N 31°21' E 121°41'0 0.1
2017-Oct-12 10:30N 31°21' E 121°41'0 0.0
2017-Oct-12 10:00N 31°21' E 121°41'0 0.1
2017-Oct-12 09:30N 31°21' E 121°41'0 0.0
2017-Oct-12 09:00N 31°21' E 121°41'0 0.0
2017-Oct-12 08:30N 31°21' E 121°41'0 0.0
2017-Oct-12 08:00N 31°21' E 121°41'0 0.0
2017-Oct-12 07:30N 31°21' E 121°41'0 0.0
2017-Oct-12 07:00N 31°21' E 121°41'0 0.0
2017-Oct-12 06:30N 31°21' E 121°41'0 0.1
2017-Oct-12 06:00N 31°21' E 121°41'0 0.0
2017-Oct-12 05:30N 31°21' E 121°41'0 0.0
2017-Oct-12 05:00N 31°21' E 121°41'0 0.0
2017-Oct-12 04:30N 31°21' E 121°41'0 0.0
2017-Oct-12 04:00N 31°21' E 121°41'0 0.1
2017-Oct-12 03:30N 31°21' E 121°41'0 0.0
2017-Oct-12 03:00N 31°21' E 121°41'0 0.1
2017-Oct-12 02:30N 31°21' E 121°41'0 0.0
2017-Oct-12 02:00N 31°21' E 121°41'0 0.0
2017-Oct-12 01:30N 31°21' E 121°41'0 0.0
2017-Oct-12 01:00N 31°21' E 121°41'0 0.0
2017-Oct-12 00:30N 31°21' E 121°41'0 0.0
2017-Oct-12 00:00N 31°21' E 121°41'0 0.0
2017-Oct-11 23:30N 31°21' E 121°41'0 0.0
2017-Oct-11 23:00N 31°21' E 121°41'0 0.0
2017-Oct-11 22:30N 31°21' E 121°41'0 0.0
2017-Oct-11 22:00N 31°21' E 121°41'0 0.0
2017-Oct-11 21:30N 31°21' E 121°41'0 0.1
2017-Oct-11 21:00N 31°21' E 121°41'0 0.0
2017-Oct-11 20:30N 31°21' E 121°41'0 0.0
2017-Oct-11 20:00N 31°21' E 121°41'0 0.0
2017-Oct-11 19:30N 31°21' E 121°41'0 0.0
2017-Oct-11 19:00N 31°21' E 121°41'0 0.1
2017-Oct-11 18:30N 31°21' E 121°41'0 0.0
2017-Oct-11 18:00N 31°21' E 121°41'0 0.1
2017-Oct-11 17:30N 31°21' E 121°41'0 0.0
2017-Oct-11 17:00N 31°21' E 121°41'0 0.0
2017-Oct-10 23:59N 31°21' E 121°41'0 0.0
2017-Oct-10 23:28N 31°21' E 121°41'0 0.0
2017-Oct-10 22:58N 31°21' E 121°41'0 0.0
2017-Oct-10 22:28N 31°21' E 121°41'0 0.0
2017-Oct-10 21:58N 31°21' E 121°41'0 0.1
2017-Oct-10 21:27N 31°21' E 121°41'0 0.0
2017-Oct-10 21:00N 31°21' E 121°41'0 0.0
2017-Oct-10 20:30N 31°21' E 121°41'0 0.1
2017-Oct-10 20:00N 31°21' E 121°41'0 0.0
2017-Oct-10 19:24N 31°21' E 121°41'0 0.1
2017-Oct-10 18:59N 31°21' E 121°41'0 0.0
2017-Oct-10 18:29N 31°21' E 121°41'0 0.0
2017-Oct-10 17:56N 31°21' E 121°41'0 0.0
2017-Oct-10 17:29N 31°21' E 121°41'0 0.0
2017-Oct-10 16:59N 31°21' E 121°41'0 0.0
2017-Oct-10 16:25N 31°21' E 121°41'0 0.0
2017-Oct-10 15:58N 31°21' E 121°41'0 0.1
2017-Oct-10 15:28N 31°21' E 121°41'0 0.0
2017-Oct-10 14:58N 31°21' E 121°41'0 0.1
2017-Oct-10 14:00N 31°21' E 121°41'0 0.0
2017-Oct-10 13:27N 31°21' E 121°41'0 0.1
2017-Oct-10 13:00N 31°21' E 121°41'0 0.0
2017-Oct-10 12:30N 31°21' E 121°41'  
Track history (hours):
 
Tides and Currents Weather Stations Pressure Air Temp Water Temp Dewpoint Dewpoint Depression Visibility Wind Speed Wind Dir Waves Ship Positions

Jj Sky

Last reported at 2017-Oct-20 12:00 UTC. Time now 2017-Oct-20 12:28 UTC.
Position N 31°20' E 121°40'.

Length 148 m; draft 7.3 m.

Type: Ship (hazmat cat D). MMSI: 477397500.

Date/timePositionNaut miles runAvg speedWind from/ knotsBaromVisibWave heightAir tempDewpointWater temp
2017-Oct-20 12:00N 31°20' E 121°40'0 0.0
2017-Oct-20 11:26N 31°20' E 121°40'0 0.0
2017-Oct-20 10:56N 31°20' E 121°40'0 0.0
2017-Oct-20 10:29N 31°20' E 121°40'0 0.0
2017-Oct-20 09:59N 31°20' E 121°40'0 0.0
2017-Oct-20 09:29N 31°20' E 121°40'0 0.0
2017-Oct-20 08:58N 31°20' E 121°40'0 0.0
2017-Oct-20 08:28N 31°20' E 121°40'0 0.0
2017-Oct-20 07:58N 31°20' E 121°40'0 0.0
2017-Oct-20 07:28N 31°20' E 121°40'0 0.0
2017-Oct-20 07:00N 31°20' E 121°40'0 0.0
2017-Oct-20 06:30N 31°20' E 121°40'0 0.0
2017-Oct-20 06:00N 31°20' E 121°40'0 0.0
2017-Oct-20 05:30N 31°20' E 121°40'0 0.0
2017-Oct-20 05:00N 31°20' E 121°40'0 0.0
2017-Oct-20 04:29N 31°20' E 121°40'0 0.0
2017-Oct-20 03:59N 31°20' E 121°40'0 0.0
2017-Oct-20 03:29N 31°20' E 121°40'0 0.0
2017-Oct-20 02:59N 31°20' E 121°40'0 0.0
2017-Oct-20 02:29N 31°20' E 121°40'0 0.0
2017-Oct-20 02:00N 31°20' E 121°40'0 0.0
2017-Oct-20 01:28N 31°20' E 121°40'0 0.6
2017-Oct-20 01:00N 31°20' E 121°41'2 4.9
2017-Oct-20 00:30N 31°19' E 121°43'611.3
2017-Oct-20 00:00N 31°17' E 121°49'611.5
2017-Oct-19 23:30N 31°16' E 121°56'612.0
2017-Oct-19 23:00N 31°14' E 122°03'4 8.0
2017-Oct-19 22:30N 31°13' E 122°07'4 8.4
2017-Oct-19 22:00N 31°10' E 122°11'612.1
2017-Oct-19 21:30N 31°07' E 122°17'713.3
2017-Oct-19 21:00N 31°06' E 122°25'  
2017-Oct-17 06:51N 34°54' E 139°26'516.1
2017-Oct-17 06:31N 34°58' E 139°32'815.8
2017-Oct-17 06:00N 35°03' E 139°39'816.6
2017-Oct-17 05:30N 35°10' E 139°45'713.3
2017-Oct-17 05:00N 35°17' E 139°45'714.4
2017-Oct-17 04:31N 35°23' E 139°42'4 8.5
2017-Oct-17 04:00N 35°28' E 139°41'0 0.1
2017-Oct-17 03:16N 35°27' E 139°41'0 0.0
2017-Oct-17 02:58N 35°27' E 139°41'0 0.0
2017-Oct-17 02:28N 35°27' E 139°41'0 0.0
2017-Oct-17 02:00N 35°27' E 139°41'0 0.0
2017-Oct-17 01:30N 35°27' E 139°41'0 0.0
2017-Oct-17 01:00N 35°27' E 139°41'0 0.0
2017-Oct-17 00:30N 35°27' E 139°41'0 0.0
2017-Oct-16 23:59N 35°27' E 139°41'0 0.0
2017-Oct-16 23:29N 35°27' E 139°41'0 0.0
2017-Oct-16 22:59N 35°27' E 139°41'0 0.0
2017-Oct-16 22:29N 35°27' E 139°41'0 0.0
2017-Oct-16 21:59N 35°27' E 139°41'0 0.0
2017-Oct-16 21:29N 35°27' E 139°41'0 0.0
2017-Oct-16 20:58N 35°27' E 139°41'0 0.0
2017-Oct-16 20:28N 35°27' E 139°41'0 0.0
2017-Oct-16 19:58N 35°27' E 139°41'0 0.0
2017-Oct-16 19:31N 35°27' E 139°41'0 0.0
2017-Oct-16 19:00N 35°27' E 139°41'0 0.0
2017-Oct-16 18:30N 35°27' E 139°41'0 0.0
2017-Oct-16 18:00N 35°27' E 139°41'0 0.0
2017-Oct-16 17:30N 35°27' E 139°41'0 0.0
2017-Oct-16 16:59N 35°27' E 139°41'0 0.0
2017-Oct-16 16:29N 35°27' E 139°41'0 0.1
2017-Oct-16 16:01N 35°28' E 139°42'3 6.0
2017-Oct-16 15:30N 35°27' E 139°45'714.6
2017-Oct-16 15:00N 35°33' E 139°50'4 7.2
2017-Oct-16 14:25N 35°36' E 139°47'0 0.0
2017-Oct-16 13:30N 35°36' E 139°47'0 0.0
2017-Oct-16 12:54N 35°36' E 139°47'0 0.0
2017-Oct-16 12:30N 35°36' E 139°47'0 0.2
2017-Oct-16 12:00N 35°36' E 139°47'0 0.2
2017-Oct-16 11:29N 35°36' E 139°47'0 0.1
2017-Oct-16 10:56N 35°36' E 139°47'0 0.1
2017-Oct-16 10:29N 35°36' E 139°47'0 0.0
2017-Oct-16 09:59N 35°36' E 139°47'0 0.0
2017-Oct-16 09:28N 35°36' E 139°47'0 0.0
2017-Oct-16 08:59N 35°36' E 139°47'0 0.1
2017-Oct-16 08:22N 35°36' E 139°47'0 0.2
2017-Oct-16 07:58N 35°36' E 139°47'0 0.0
2017-Oct-16 07:22N 35°36' E 139°47'0 0.0
2017-Oct-16 06:58N 35°36' E 139°47'0 0.2
2017-Oct-16 06:27N 35°36' E 139°47'0 0.0
2017-Oct-16 05:57N 35°36' E 139°47'0 0.0
2017-Oct-16 05:27N 35°36' E 139°47'0 0.1
2017-Oct-16 04:57N 35°36' E 139°47'0 0.0
2017-Oct-16 04:27N 35°36' E 139°47'0 0.0
2017-Oct-16 03:56N 35°36' E 139°47'0 0.1
2017-Oct-16 03:26N 35°36' E 139°47'0 0.1
2017-Oct-16 02:56N 35°36' E 139°47'0 0.0
2017-Oct-16 02:31N 35°36' E 139°47'0 0.0
2017-Oct-16 01:56N 35°36' E 139°47'0 0.2
2017-Oct-16 01:26N 35°36' E 139°47'1 2.0
2017-Oct-16 00:59N 35°36' E 139°47'612.8
2017-Oct-16 00:30N 35°31' E 139°52'714.5
2017-Oct-16 00:00N 35°25' E 139°47'713.1
2017-Oct-15 23:30N 35°19' E 139°44'612.9
2017-Oct-15 23:00N 35°12' E 139°47'713.8
2017-Oct-15 22:31N 35°06' E 139°44'714.1
2017-Oct-15 21:59N 35°00' E 139°39'714.9
2017-Oct-15 21:30N 34°56' E 139°31'  
2017-Oct-13 06:11N 31°06' E 122°31'312.8
2017-Oct-13 05:58N 31°06' E 122°28'612.5
2017-Oct-13 05:30N 31°06' E 122°21'612.7
2017-Oct-13 05:00N 31°08' E 122°15'713.5
2017-Oct-13 04:30N 31°12' E 122°08'713.2
2017-Oct-13 04:00N 31°15' E 122°01'714.7
2017-Oct-13 03:30N 31°16' E 121°53'714.7
2017-Oct-13 03:00N 31°19' E 121°44'4 7.6
2017-Oct-13 02:30N 31°20' E 121°40'0 0.1
2017-Oct-13 01:58N 31°20' E 121°40'0 0.0
2017-Oct-13 01:28N 31°20' E 121°40'0 0.1
2017-Oct-13 00:58N 31°20' E 121°40'0 0.0
2017-Oct-13 00:30N 31°20' E 121°40'0 0.0
2017-Oct-12 23:57N 31°20' E 121°40'0 0.1
2017-Oct-12 23:30N 31°20' E 121°40'0 0.1
2017-Oct-12 23:00N 31°20' E 121°40'0 0.0
2017-Oct-12 22:29N 31°20' E 121°40'0 0.1
2017-Oct-12 21:56N 31°20' E 121°40'0 0.1
2017-Oct-12 21:23N 31°20' E 121°40'0 0.1
2017-Oct-12 20:59N 31°20' E 121°40'0 0.0
2017-Oct-12 20:29N 31°20' E 121°40'0 0.1
2017-Oct-12 19:58N 31°20' E 121°40'0 0.1
2017-Oct-12 19:25N 31°20' E 121°40'0 0.1
2017-Oct-12 18:55N 31°20' E 121°40'0 0.1
2017-Oct-12 18:25N 31°20' E 121°40'0 0.0
2017-Oct-12 18:00N 31°20' E 121°40'0 0.0
2017-Oct-12 17:30N 31°20' E 121°40'0 0.0
2017-Oct-12 17:00N 31°20' E 121°40'0 0.1
2017-Oct-12 16:24N 31°20' E 121°40'0 0.1
2017-Oct-12 16:00N 31°20' E 121°40'0 0.0
2017-Oct-12 15:29N 31°20' E 121°40'0 0.0
2017-Oct-12 14:59N 31°20' E 121°40'0 0.1
2017-Oct-12 14:29N 31°20' E 121°40'0 0.0
2017-Oct-12 13:59N 31°20' E 121°40'0 0.1
2017-Oct-12 13:29N 31°20' E 121°40'0 0.0
2017-Oct-12 12:59N 31°20' E 121°40'0 0.1
2017-Oct-12 12:25N 31°20' E 121°40'0 0.1
2017-Oct-12 11:55N 31°20' E 121°40'1 3.2
2017-Oct-12 11:30N 31°20' E 121°42'1 1.4
2017-Oct-12 10:56N 31°21' E 121°41'0 0.1
2017-Oct-12 10:30N 31°21' E 121°41'0 0.0
2017-Oct-12 10:00N 31°21' E 121°41'0 0.1
2017-Oct-12 09:30N 31°21' E 121°41'0 0.0
2017-Oct-12 09:00N 31°21' E 121°41'0 0.0
2017-Oct-12 08:30N 31°21' E 121°41'0 0.0
2017-Oct-12 08:00N 31°21' E 121°41'0 0.0
2017-Oct-12 07:30N 31°21' E 121°41'0 0.0
2017-Oct-12 07:00N 31°21' E 121°41'0 0.0
2017-Oct-12 06:30N 31°21' E 121°41'0 0.1
2017-Oct-12 06:00N 31°21' E 121°41'0 0.0
2017-Oct-12 05:30N 31°21' E 121°41'0 0.0
2017-Oct-12 05:00N 31°21' E 121°41'0 0.0
2017-Oct-12 04:30N 31°21' E 121°41'0 0.0
2017-Oct-12 04:00N 31°21' E 121°41'0 0.1
2017-Oct-12 03:30N 31°21' E 121°41'0 0.0
2017-Oct-12 03:00N 31°21' E 121°41'0 0.1
2017-Oct-12 02:30N 31°21' E 121°41'0 0.0
2017-Oct-12 02:00N 31°21' E 121°41'0 0.0
2017-Oct-12 01:30N 31°21' E 121°41'0 0.0
2017-Oct-12 01:00N 31°21' E 121°41'0 0.0
2017-Oct-12 00:30N 31°21' E 121°41'0 0.0
2017-Oct-12 00:00N 31°21' E 121°41'0 0.0
2017-Oct-11 23:30N 31°21' E 121°41'0 0.0
2017-Oct-11 23:00N 31°21' E 121°41'0 0.0
2017-Oct-11 22:30N 31°21' E 121°41'0 0.0
2017-Oct-11 22:00N 31°21' E 121°41'0 0.0
2017-Oct-11 21:30N 31°21' E 121°41'0 0.1
2017-Oct-11 21:00N 31°21' E 121°41'0 0.0
2017-Oct-11 20:30N 31°21' E 121°41'0 0.0
2017-Oct-11 20:00N 31°21' E 121°41'0 0.0
2017-Oct-11 19:30N 31°21' E 121°41'0 0.0
2017-Oct-11 19:00N 31°21' E 121°41'0 0.1
2017-Oct-11 18:30N 31°21' E 121°41'0 0.0
2017-Oct-11 18:00N 31°21' E 121°41'0 0.1
2017-Oct-11 17:30N 31°21' E 121°41'0 0.0
2017-Oct-11 17:00N 31°21' E 121°41'0 0.0
2017-Oct-10 23:59N 31°21' E 121°41'0 0.0
2017-Oct-10 23:28N 31°21' E 121°41'0 0.0
2017-Oct-10 22:58N 31°21' E 121°41'0 0.0
2017-Oct-10 22:28N 31°21' E 121°41'0 0.0
2017-Oct-10 21:58N 31°21' E 121°41'0 0.1
2017-Oct-10 21:27N 31°21' E 121°41'0 0.0
2017-Oct-10 21:00N 31°21' E 121°41'0 0.0
2017-Oct-10 20:30N 31°21' E 121°41'0 0.1
2017-Oct-10 20:00N 31°21' E 121°41'0 0.0
2017-Oct-10 19:24N 31°21' E 121°41'0 0.1
2017-Oct-10 18:59N 31°21' E 121°41'0 0.0
2017-Oct-10 18:29N 31°21' E 121°41'0 0.0
2017-Oct-10 17:56N 31°21' E 121°41'0 0.0
2017-Oct-10 17:29N 31°21' E 121°41'0 0.0
2017-Oct-10 16:59N 31°21' E 121°41'0 0.0
2017-Oct-10 16:25N 31°21' E 121°41'0 0.0
2017-Oct-10 15:58N 31°21' E 121°41'0 0.1
2017-Oct-10 15:28N 31°21' E 121°41'0 0.0
2017-Oct-10 14:58N 31°21' E 121°41'0 0.1
2017-Oct-10 14:00N 31°21' E 121°41'0 0.0
2017-Oct-10 13:27N 31°21' E 121°41'0 0.1
2017-Oct-10 13:00N 31°21' E 121°41'0 0.0
2017-Oct-10 12:30N 31°21' E 121°41'  

Dump ship's entire track history